Terminal Aerodrome Forecast
Issued by NWS

Home | Current Version | Previous Version | Graphics & Text | Print | Product List | Glossary On
Versions: 1 2 3 4 5 6 7 8 9 10 11 12 13 14
000
FTUS43 KFGF 070500
TAFBJI
TAF
KBJI 070520Z 0706/0806 VRB06KT P6SM BKN200
     FM070900 VRB04KT P6SM VCSH BKN120
      TEMPO 0709/0711 -SHRA BKN080
     FM071400 VRB06KT P6SM SCT100
     FM071600 VRB06KT P6SM BKN040
     FM071900 27009KT P6SM VCTS BKN050CB
     FM080300 29007KT P6SM SCT050=

USA.gov is the U.S. government's official web portal to all federal, state and local government web resources and services.